Time;durP1;ratioP1;P1;durP2;ratioP2;P2;SDS_P1;SDS_P2;PMS_P1;PMS_P2;Temp;Humidity;BMP_temperature;BMP_pressure;BME280_temperature;BME280_humidity;BME280_pressure;Samples;Min_cycle;Max_cycle;Signal;HPM_P1;HPM_P2
2021/08/26 00:06:21;;;;;;;10.13;5.90;;;17.00;66.60;;;;;;4982842;28;20228;-72
2021/08/26 00:08:48;;;;;;;14.73;6.18;;;17.00;65.80;;;;;;4966810;28;20018;-72
2021/08/26 00:11:16;;;;;;;;;;;17.10;67.40;;;;;;4964048;28;20034;-72
2021/08/26 00:13:46;;;;;;;;;;;17.00;66.20;;;;;;4963674;29;19906;-72
2021/08/26 00:16:12;;;;;;;9.18;5.20;;;17.00;65.60;;;;;;4963395;28;19910;-72
2021/08/26 00:18:39;;;;;;;9.67;4.97;;;17.00;66.60;;;;;;4964535;28;20026;-73
2021/08/26 00:21:05;;;;;;;9.68;5.80;;;17.00;67.10;;;;;;4962979;29;20313;-72
2021/08/26 00:23:31;;;;;;;10.80;5.90;;;16.90;66.50;;;;;;4963064;29;20054;-72
2021/08/26 00:25:57;;;;;;;10.60;6.33;;;16.90;66.70;;;;;;4963268;28;20318;-72
2021/08/26 00:28:22;;;;;;;7.90;5.03;;;16.90;67.10;;;;;;4979541;28;20030;-72
2021/08/26 00:30:48;;;;;;;10.80;5.53;;;16.90;66.80;;;;;;4979480;28;20421;-72
2021/08/26 00:33:14;;;;;;;9.90;5.30;;;16.90;66.80;;;;;;4979154;28;20078;-72
2021/08/26 00:35:40;;;;;;;11.60;6.10;;;16.90;66.90;;;;;;4963050;28;20027;-72
2021/08/26 00:38:05;;;;;;;11.20;5.82;;;16.80;65.80;;;;;;4962454;29;20369;-72
2021/08/26 00:40:31;;;;;;;10.03;5.17;;;16.80;66.50;;;;;;4964196;28;20024;-72
2021/08/26 00:42:58;;;;;;;14.80;6.03;;;16.80;66.40;;;;;;4982988;28;20213;-72
2021/08/26 00:45:24;;;;;;;12.80;6.15;;;16.80;65.60;;;;;;4982616;28;20308;-73
2021/08/26 00:47:50;;;;;;;12.40;5.97;;;16.80;64.60;;;;;;4982361;28;20021;-72
2021/08/26 00:50:16;;;;;;;10.70;5.07;;;16.80;64.90;;;;;;4982512;28;20023;-72
2021/08/26 00:52:41;;;;;;;8.37;5.47;;;16.80;64.80;;;;;;4982169;28;20022;-72
2021/08/26 00:55:08;;;;;;;11.20;5.63;;;16.80;64.40;;;;;;4982379;28;20027;-72
2021/08/26 00:57:34;;;;;;;11.02;5.43;;;16.70;64.60;;;;;;4982104;28;20086;-72
2021/08/26 01:00:00;;;;;;;10.48;5.60;;;16.70;64.00;;;;;;4985224;28;20027;-73
2021/08/26 01:02:33;;;;;;;10.03;5.33;;;16.60;64.30;;;;;;4969586;28;20199;-72
2021/08/26 01:05:08;;;;;;;9.88;5.47;;;16.70;63.90;;;;;;4986150;28;20065;-72
2021/08/26 01:07:44;;;;;;;12.27;6.50;;;16.70;64.70;;;;;;4986061;28;20325;-72
2021/08/26 01:10:13;;;;;;;9.60;5.78;;;16.70;64.50;;;;;;4986044;28;20027;-71
2021/08/26 01:12:39;;;;;;;11.55;6.25;;;16.70;65.10;;;;;;4985383;28;20023;-72
2021/08/26 01:15:08;;;;;;;10.23;5.90;;;16.70;64.30;;;;;;4985946;28;20046;-72
2021/08/26 01:17:33;;;;;;;9.50;5.82;;;16.70;64.40;;;;;;4985802;28;20258;-72
2021/08/26 01:20:01;;;;;;;10.77;6.10;;;16.60;65.00;;;;;;4986879;28;20026;-72
2021/08/26 01:22:27;;;;;;;8.10;4.97;;;16.60;65.30;;;;;;4969296;28;20221;-72
2021/08/26 01:25:03;;;;;;;8.73;5.68;;;16.50;64.90;;;;;;4985197;28;20023;-72
2021/08/26 01:27:32;;;;;;;11.00;5.60;;;16.50;65.30;;;;;;4985419;28;20347;-72
2021/08/26 01:29:58;;;;;;;10.30;5.35;;;16.50;65.80;;;;;;4969584;28;20022;-72
2021/08/26 01:32:24;;;;;;;13.33;5.87;;;16.50;65.70;;;;;;4985480;28;20019;-72
2021/08/26 01:34:51;;;;;;;10.45;5.88;;;16.40;66.30;;;;;;4985652;28;20062;-72
2021/08/26 01:37:21;;;;;;;11.48;5.50;;;16.40;66.20;;;;;;4985355;28;20050;-72
2021/08/26 01:39:50;;;;;;;10.40;5.65;;;16.30;66.30;;;;;;4985488;28;20294;-72
2021/08/26 01:42:15;;;;;;;10.60;6.25;;;16.40;66.60;;;;;;4984277;28;20019;-72
2021/08/26 01:44:41;;;;;;;11.07;5.93;;;16.40;66.90;;;;;;4985468;28;20344;-72
2021/08/26 01:47:17;;;;;;;11.80;6.70;;;16.40;67.20;;;;;;4969188;28;20093;-72
2021/08/26 01:49:43;;;;;;;10.32;6.03;;;16.40;66.80;;;;;;4985540;28;20323;-73
2021/08/26 01:52:10;;;;;;;11.40;6.28;;;16.30;67.50;;;;;;4968755;28;20102;-72
2021/08/26 01:54:35;;;;;;;11.95;6.13;;;16.20;67.70;;;;;;4983909;28;20245;-72
2021/08/26 01:57:02;;;;;;;10.50;6.03;;;16.30;67.90;;;;;;4968707;28;20042;-73
2021/08/26 01:59:28;;;;;;;14.02;6.97;;;16.30;68.40;;;;;;4985134;28;20329;-73
2021/08/26 02:01:53;;;;;;;13.67;7.10;;;16.30;67.80;;;;;;4984897;28;20038;-73
2021/08/26 02:04:19;;;;;;;12.80;6.23;;;16.20;67.90;;;;;;4986114;28;20027;-73
2021/08/26 02:06:44;;;;;;;11.80;6.60;;;16.20;67.70;;;;;;4968823;28;20094;-73
2021/08/26 02:09:10;;;;;;;9.27;6.57;;;16.10;68.20;;;;;;4968729;28;20224;-73
2021/08/26 02:11:35;;;;;;;11.77;6.80;;;16.20;68.60;;;;;;4983589;28;20034;-72
2021/08/26 02:14:01;;;;;;;11.57;6.47;;;16.20;68.50;;;;;;4984620;28;20074;-72
2021/08/26 02:16:27;;;;;;;10.07;5.90;;;16.10;68.20;;;;;;4968660;28;20098;-73
2021/08/26 02:18:53;;;;;;;10.40;6.03;;;16.10;68.70;;;;;;4984743;28;20036;-73
2021/08/26 02:21:18;;;;;;;15.53;6.87;;;16.00;68.30;;;;;;4984610;28;20029;-73
2021/08/26 02:23:44;;;;;;;11.43;6.47;;;15.90;68.20;;;;;;4968286;28;20364;-73
2021/08/26 02:26:10;;;;;;;10.73;7.00;;;15.90;68.60;;;;;;4984559;28;20342;-72
2021/08/26 02:28:36;;;;;;;11.57;6.55;;;15.90;68.80;;;;;;4984344;28;20225;-72
2021/08/26 02:31:02;;;;;;;12.30;6.43;;;15.80;69.30;;;;;;4984586;28;20089;-73
2021/08/26 02:33:27;;;;;;;11.43;6.43;;;15.70;69.50;;;;;;4968023;28;20042;-72
2021/08/26 02:35:53;;;;;;;13.53;7.03;;;15.70;69.60;;;;;;4984233;28;20018;-72
2021/08/26 02:38:19;;;;;;;13.60;6.97;;;15.70;70.20;;;;;;4983945;28;20045;-73
2021/08/26 02:40:44;;;;;;;12.70;6.43;;;15.70;70.10;;;;;;4983730;28;20038;-72
2021/08/26 02:43:10;;;;;;;13.00;7.10;;;15.70;69.90;;;;;;4983847;28;20194;-72
2021/08/26 02:45:35;;;;;;;8.60;5.90;;;15.80;70.00;;;;;;4984251;28;20022;-72
2021/08/26 02:48:01;;;;;;;9.77;6.30;;;15.90;70.00;;;;;;4985353;28;20620;-73
2021/08/26 02:50:27;;;;;;;10.73;6.50;;;15.90;70.60;;;;;;4968020;28;20098;-72
2021/08/26 02:52:52;;;;;;;10.60;7.07;;;15.90;71.00;;;;;;4967696;28;20377;-72
2021/08/26 02:55:18;;;;;;;12.83;7.47;;;16.00;71.80;;;;;;4984179;28;20090;-73
2021/08/26 02:57:44;;;;;;;13.03;7.10;;;16.00;71.50;;;;;;4967696;28;20052;-72
2021/08/26 03:00:10;;;;;;;13.30;6.80;;;15.90;71.00;;;;;;4984018;28;20046;-72
2021/08/26 03:02:35;;;;;;;12.75;7.25;;;15.80;70.90;;;;;;4983776;28;20101;-72
2021/08/26 03:05:01;;;;;;;16.23;7.87;;;15.80;71.50;;;;;;4985038;28;20198;-72
2021/08/26 03:07:27;;;;;;;15.13;6.87;;;15.80;71.30;;;;;;4983981;28;20026;-72
2021/08/26 03:09:52;;;;;;;13.80;7.50;;;15.60;72.40;;;;;;4985108;28;20030;-72
2021/08/26 03:12:18;;;;;;;13.50;8.07;;;15.60;72.30;;;;;;4987094;28;20027;-72
2021/08/26 03:14:43;;;;;;;15.40;7.40;;;15.60;72.70;;;;;;4987493;28;20034;-72
2021/08/26 03:17:09;;;;;;;13.80;8.17;;;15.60;73.10;;;;;;4987997;28;20038;-72
2021/08/26 03:19:35;;;;;;;13.17;7.67;;;15.60;73.20;;;;;;4987208;28;20023;-72
2021/08/26 03:22:00;;;;;;;11.70;6.90;;;15.70;74.00;;;;;;4986320;28;20225;-72
2021/08/26 03:24:26;;;;;;;13.80;8.13;;;15.70;74.30;;;;;;4984436;28;20030;-72
2021/08/26 03:26:51;;;;;;;12.97;7.73;;;15.70;73.30;;;;;;4984212;28;20022;-73
2021/08/26 03:29:17;;;;;;;16.30;8.53;;;15.60;73.40;;;;;;4983839;28;20023;-75
2021/08/26 03:31:43;;;;;;;16.57;7.83;;;15.60;73.30;;;;;;4983654;28;20029;-72
2021/08/26 03:34:08;;;;;;;14.60;7.73;;;15.50;74.00;;;;;;4983323;28;20022;-72
2021/08/26 03:36:34;;;;;;;14.80;7.67;;;15.60;74.20;;;;;;4983379;28;20027;-73
2021/08/26 03:38:59;;;;;;;14.97;8.97;;;15.60;73.90;;;;;;4983113;28;20026;-73
2021/08/26 03:41:25;;;;;;;15.00;8.23;;;15.70;74.90;;;;;;4982357;28;20025;-73
2021/08/26 03:43:51;;;;;;;13.97;8.03;;;15.60;74.30;;;;;;4983210;28;20317;-73
2021/08/26 03:46:17;;;;;;;15.10;8.77;;;15.50;75.40;;;;;;4967135;28;20369;-73
2021/08/26 03:48:42;;;;;;;15.93;8.93;;;15.50;76.00;;;;;;4983221;28;20046;-73
2021/08/26 03:51:08;;;;;;;16.50;8.50;;;15.60;75.90;;;;;;4984324;28;20027;-73
2021/08/26 03:53:33;;;;;;;15.53;9.13;;;15.60;76.70;;;;;;4982737;28;20066;-73
2021/08/26 03:55:59;;;;;;;17.73;9.57;;;15.60;76.10;;;;;;4982958;28;20026;-73
2021/08/26 03:58:24;;;;;;;16.20;9.60;;;15.60;77.40;;;;;;4982817;28;20038;-73
2021/08/26 04:00:50;;;;;;;18.33;10.77;;;15.60;78.50;;;;;;4982996;28;20018;-73
2021/08/26 04:03:16;;;;;;;18.37;10.83;;;15.60;78.60;;;;;;4966588;28;20019;-72
2021/08/26 04:05:41;;;;;;;16.77;9.47;;;15.60;80.30;;;;;;4966940;28;20029;-73
2021/08/26 04:08:07;;;;;;;17.63;10.27;;;15.50;80.50;;;;;;4982954;28;20023;-73
2021/08/26 04:10:32;;;;;;;19.87;11.20;;;15.60;81.10;;;;;;4982850;28;20086;-73
2021/08/26 04:12:58;;;;;;;17.60;11.23;;;15.60;81.90;;;;;;4966028;28;20045;-72
2021/08/26 04:15:24;;;;;;;18.00;10.87;;;15.50;80.60;;;;;;4982813;28;20018;-72
2021/08/26 04:17:49;;;;;;;17.57;10.70;;;15.50;81.00;;;;;;4982692;28;20019;-73
2021/08/26 04:20:15;;;;;;;16.63;9.97;;;15.50;81.70;;;;;;4982817;28;20101;-73
2021/08/26 04:22:41;;;;;;;21.90;11.47;;;15.50;82.20;;;;;;4982587;28;20042;-73
2021/08/26 04:25:07;;;;;;;20.23;11.07;;;15.40;83.10;;;;;;4983750;28;20046;-72
2021/08/26 04:27:33;;;;;;;18.25;11.93;;;15.40;83.40;;;;;;4946593;29;20026;-73
2021/08/26 04:29:58;;;;;;;17.07;11.70;;;15.30;83.30;;;;;;4964487;28;20220;-73
2021/08/26 04:32:24;;;;;;;19.93;12.03;;;15.30;83.70;;;;;;4964181;28;20069;-72
2021/08/26 04:34:49;;;;;;;17.83;11.90;;;15.30;84.90;;;;;;4966973;28;20050;-72
2021/08/26 04:37:15;;;;;;;22.80;12.77;;;15.20;85.10;;;;;;4967046;28;20071;-73
2021/08/26 04:39:41;;;;;;;18.47;11.70;;;15.10;85.90;;;;;;4983006;28;20083;-72
2021/08/26 04:42:06;;;;;;;23.40;13.83;;;15.10;86.40;;;;;;4985532;28;20105;-72
2021/08/26 04:44:32;;;;;;;21.20;12.60;;;15.20;86.00;;;;;;4970267;28;20023;-72
2021/08/26 04:46:58;;;;;;;19.43;13.17;;;15.10;86.20;;;;;;4987463;28;20198;-73
2021/08/26 04:49:24;;;;;;;22.40;12.60;;;15.10;86.90;;;;;;4987428;28;20023;-73
2021/08/26 04:51:49;;;;;;;25.95;14.27;;;15.10;86.30;;;;;;4969996;28;20321;-73
2021/08/26 04:54:15;;;;;;;25.83;14.30;;;14.90;86.80;;;;;;4987264;28;20135;-73
2021/08/26 04:56:40;;;;;;;20.83;13.97;;;14.80;87.30;;;;;;4986001;28;20066;-73
2021/08/26 04:59:06;;;;;;;22.87;13.83;;;14.80;87.40;;;;;;4976664;28;20360;-73
2021/08/26 05:01:32;;;;;;;19.50;13.53;;;14.70;87.30;;;;;;4956886;28;20023;-73
2021/08/26 05:03:57;;;;;;;23.90;14.60;;;14.70;87.40;;;;;;4981971;28;20026;-73
2021/08/26 05:06:23;;;;;;;25.77;15.67;;;14.80;87.50;;;;;;4976886;28;20027;-73
2021/08/26 05:08:51;;;;;;;22.10;14.40;;;14.70;87.80;;;;;;4958877;28;20015;-73
2021/08/26 05:11:21;;;;;;;23.92;14.85;;;14.60;88.50;;;;;;4983118;28;20027;-73
2021/08/26 05:13:47;;;;;;;24.85;15.38;;;14.60;88.20;;;;;;4985705;28;20034;-72
2021/08/26 05:16:12;;;;;;;23.77;16.30;;;14.60;88.50;;;;;;4969731;28;20237;-73
2021/08/26 05:18:38;;;;;;;28.10;15.57;;;14.50;90.00;;;;;;4987064;28;20033;-72
2021/08/26 05:21:04;;;;;;;27.97;15.57;;;14.50;90.00;;;;;;4985804;28;20015;-72
2021/08/26 05:23:29;;;;;;;24.27;15.63;;;14.40;90.20;;;;;;4969317;28;20065;-73
2021/08/26 05:25:55;;;;;;;26.90;16.73;;;14.30;90.10;;;;;;4965404;28;20050;-72
2021/08/26 05:28:21;;;;;;;25.03;17.80;;;14.40;90.30;;;;;;4975650;28;20341;-73
2021/08/26 05:30:46;;;;;;;23.70;15.70;;;14.40;90.40;;;;;;4966374;29;20023;-73
2021/08/26 05:33:12;;;;;;;28.90;18.27;;;14.40;90.30;;;;;;4950180;29;20088;-73
2021/08/26 05:35:38;;;;;;;27.43;17.43;;;14.40;90.40;;;;;;4950351;29;20027;-72
2021/08/26 05:38:04;;;;;;;22.83;16.90;;;14.30;90.60;;;;;;4966932;29;20047;-72
2021/08/26 05:40:29;;;;;;;19.63;15.23;;;14.20;90.70;;;;;;4966227;29;20023;-72
2021/08/26 05:42:55;;;;;;;23.20;16.27;;;14.30;90.90;;;;;;4997395;23;20364;-76
2021/08/26 05:45:20;;;;;;;23.73;16.07;;;14.30;90.80;;;;;;4965793;28;20058;-75
2021/08/26 05:47:46;;;;;;;25.63;17.00;;;14.30;91.10;;;;;;4960374;28;20011;-76
2021/08/26 05:50:12;;;;;;;22.53;16.00;;;14.40;91.10;;;;;;4966028;29;20011;-76
2021/08/26 05:52:37;;;;;;;22.13;15.67;;;14.60;91.00;;;;;;4965699;28;20015;-76
2021/08/26 05:55:03;;;;;;;29.93;15.80;;;14.60;90.60;;;;;;4965060;29;20037;-75
2021/08/26 05:57:29;;;;;;;23.65;14.30;;;14.50;90.90;;;;;;4965567;29;20019;-76
2021/08/26 05:59:55;;;;;;;22.27;15.77;;;14.40;91.00;;;;;;4950391;29;20051;-76
2021/08/26 06:02:20;;;;;;;21.43;15.27;;;14.50;91.10;;;;;;4946232;29;20315;-75
2021/08/26 06:04:46;;;;;;;22.67;15.63;;;14.60;90.90;;;;;;4947580;29;20032;-76
2021/08/26 06:07:11;;;;;;;24.03;14.50;;;14.30;91.10;;;;;;4946480;29;20047;-75
2021/08/26 06:09:37;;;;;;;21.13;15.67;;;14.50;91.30;;;;;;4947383;29;20023;-77
2021/08/26 06:12:03;;;;;;;20.60;14.63;;;14.50;91.00;;;;;;4947468;29;20247;-73
2021/08/26 06:14:28;;;;;;;18.03;12.70;;;14.60;91.30;;;;;;4959409;28;20032;-74
2021/08/26 06:16:54;;;;;;;19.43;13.40;;;14.60;90.70;;;;;;4947713;29;20031;-73
2021/08/26 06:19:19;;;;;;;15.97;12.63;;;14.80;90.90;;;;;;4950362;29;20031;-74
2021/08/26 06:21:45;;;;;;;19.47;12.50;;;14.80;90.80;;;;;;4966568;29;20098;-73
2021/08/26 06:24:11;;;;;;;16.07;12.07;;;15.00;90.70;;;;;;4967294;28;20034;-74
2021/08/26 06:26:37;;;;;;;18.70;12.70;;;14.90;91.00;;;;;;4967356;29;20042;-74
2021/08/26 06:29:03;;;;;;;12.82;9.60;;;15.00;90.70;;;;;;4950710;29;20051;-73
2021/08/26 06:31:29;;;;;;;15.63;10.75;;;15.00;90.10;;;;;;4951085;29;20270;-73
2021/08/26 06:33:54;;;;;;;14.80;9.13;;;15.00;90.30;;;;;;4965488;28;20039;-74
2021/08/26 06:36:20;;;;;;;12.07;9.10;;;15.00;90.00;;;;;;4965559;29;20023;-75
2021/08/26 06:38:46;;;;;;;12.27;8.73;;;14.90;90.10;;;;;;4965417;29;20034;-74
2021/08/26 06:41:11;;;;;;;13.80;9.10;;;14.90;90.00;;;;;;4959152;29;20054;-75
2021/08/26 06:43:37;;;;;;;12.40;8.17;;;15.00;90.30;;;;;;4936890;29;20234;-74
2021/08/26 06:46:02;;;;;;;10.17;7.87;;;14.90;90.20;;;;;;4960138;29;20023;-74
2021/08/26 06:48:28;;;;;;;11.10;8.23;;;14.90;90.30;;;;;;4966495;29;20334;-74
2021/08/26 06:50:54;;;;;;;11.83;8.27;;;15.00;90.40;;;;;;4981722;28;20038;-74
2021/08/26 06:53:19;;;;;;;8.03;6.67;;;15.20;89.90;;;;;;4965002;28;20093;-74
2021/08/26 06:55:45;;;;;;;12.33;7.30;;;15.20;90.00;;;;;;4965597;28;20047;-73
2021/08/26 06:58:10;;;;;;;9.87;6.93;;;15.30;89.20;;;;;;4980671;28;20011;-74
2021/08/26 07:00:36;;;;;;;8.83;6.80;;;15.20;89.20;;;;;;4949937;29;20019;-73
2021/08/26 07:03:02;;;;;;;8.63;7.40;;;15.00;89.40;;;;;;4965265;28;20396;-73
2021/08/26 07:05:27;;;;;;;9.60;8.17;;;15.10;90.10;;;;;;4959865;29;20031;-74
2021/08/26 07:07:53;;;;;;;9.80;7.37;;;15.20;90.10;;;;;;4944857;29;20136;-73
2021/08/26 07:10:18;;;;;;;9.07;6.93;;;15.20;90.10;;;;;;4946349;29;20050;-75
2021/08/26 07:12:44;;;;;;;8.00;6.67;;;15.30;89.60;;;;;;4954847;29;20207;-74
2021/08/26 07:15:10;;;;;;;8.60;6.03;;;15.30;89.00;;;;;;4936562;29;20272;-73
2021/08/26 07:17:36;;;;;;;7.63;6.47;;;15.50;89.40;;;;;;4964251;29;20019;-74
2021/08/26 07:20:04;;;;;;;8.45;6.93;;;15.60;88.40;;;;;;4965144;29;20022;-74
2021/08/26 07:22:29;;;;;;;8.02;6.45;;;15.70;89.00;;;;;;4929523;29;20028;-74
2021/08/26 07:24:55;;;;;;;8.13;5.80;;;15.70;88.70;;;;;;4946035;29;20037;-74
2021/08/26 07:27:20;;;;;;;7.53;5.87;;;15.70;87.80;;;;;;4929292;29;20028;-74
2021/08/26 07:29:46;;;;;;;7.83;6.10;;;15.80;88.40;;;;;;4951796;29;20030;-74
2021/08/26 07:32:12;;;;;;;8.03;5.97;;;15.80;89.00;;;;;;4963898;29;20385;-74
2021/08/26 07:34:37;;;;;;;7.17;5.77;;;15.70;89.30;;;;;;4965036;28;20030;-74
2021/08/26 07:37:03;;;;;;;6.70;5.63;;;15.60;89.20;;;;;;4964046;28;20022;-74
2021/08/26 07:39:28;;;;;;;6.30;4.30;;;15.50;88.90;;;;;;4965164;29;20019;-74
2021/08/26 07:41:54;;;;;;;4.40;4.00;;;15.20;89.20;;;;;;4963093;29;20023;-74
2021/08/26 07:44:20;;;;;;;6.17;4.30;;;15.20;89.70;;;;;;4963599;29;20027;-74
2021/08/26 07:46:45;;;;;;;5.20;3.93;;;15.20;89.70;;;;;;4965004;29;20023;-74
2021/08/26 07:49:11;;;;;;;5.33;4.03;;;15.30;90.00;;;;;;4965007;29;20091;-74
2021/08/26 07:51:36;;;;;;;5.33;3.17;;;15.30;89.90;;;;;;4964882;29;20038;-74
2021/08/26 07:54:02;;;;;;;4.03;2.77;;;15.40;88.80;;;;;;4963263;28;20392;-74
2021/08/26 07:56:27;;;;;;;10.07;3.30;;;15.50;87.70;;;;;;4964750;29;20022;-74
2021/08/26 07:58:53;;;;;;;3.27;2.43;;;15.70;87.60;;;;;;4964500;29;20026;-74
2021/08/26 08:01:19;;;;;;;4.67;2.53;;;15.60;85.20;;;;;;4964740;29;20198;-74
2021/08/26 08:03:44;;;;;;;3.97;2.47;;;15.50;85.30;;;;;;4964408;28;20019;-74
2021/08/26 08:06:11;;;;;;;3.67;2.57;;;15.40;84.70;;;;;;4963531;29;20019;-74
2021/08/26 08:08:36;;;;;;;4.68;2.88;;;15.50;86.00;;;;;;4962848;28;20245;-74
2021/08/26 08:11:02;;;;;;;7.43;2.50;;;15.50;86.10;;;;;;4963580;29;20054;-74
2021/08/26 08:13:28;;;;;;;6.83;2.60;;;15.70;86.30;;;;;;4961890;28;20027;-74
2021/08/26 08:15:53;;;;;;;3.33;2.43;;;15.60;85.60;;;;;;4963586;29;20209;-74
2021/08/26 08:18:19;;;;;;;3.90;2.13;;;15.60;84.40;;;;;;4963572;29;20030;-74
2021/08/26 08:20:46;;;;;;;5.00;2.53;;;15.50;83.40;;;;;;4947367;29;20466;-74
2021/08/26 08:23:12;;;;;;;8.45;2.90;;;15.60;84.70;;;;;;4963987;28;20037;-74
2021/08/26 08:25:37;;;;;;;4.70;3.00;;;15.60;83.50;;;;;;4964455;29;20321;-74
2021/08/26 08:28:15;;;;;;;6.70;3.33;;;15.50;82.80;;;;;;4957270;29;20084;-74
2021/08/26 08:30:41;;;;;;;7.35;3.30;;;15.50;82.90;;;;;;4928891;29;20067;-74
2021/08/26 08:33:06;;;;;;;4.90;2.87;;;15.70;82.50;;;;;;4948521;28;20314;-74
2021/08/26 08:35:32;;;;;;;6.60;3.37;;;15.80;83.10;;;;;;4950800;29;20020;-74
2021/08/26 08:37:58;;;;;;;5.63;3.07;;;15.90;84.40;;;;;;4928298;29;20027;-74
2021/08/26 08:40:23;;;;;;;4.87;2.63;;;16.00;81.30;;;;;;4944187;29;20315;-74
2021/08/26 08:42:49;;;;;;;6.80;2.77;;;16.10;79.90;;;;;;4952292;28;20031;-74
2021/08/26 08:45:14;;;;;;;3.23;2.57;;;16.20;81.50;;;;;;4964324;29;20023;-74
2021/08/26 08:47:40;;;;;;;4.93;2.70;;;16.30;81.90;;;;;;4963202;29;20066;-74
2021/08/26 08:50:06;;;;;;;6.63;2.93;;;16.50;81.90;;;;;;4963162;29;20023;-75
2021/08/26 08:52:36;;;;;;;5.72;2.67;;;16.70;79.90;;;;;;4964026;28;20070;-75
2021/08/26 08:55:02;;;;;;;3.45;2.30;;;16.70;78.20;;;;;;4979132;28;20027;-75
2021/08/26 08:57:28;;;;;;;4.53;2.47;;;16.70;77.20;;;;;;4979027;28;20074;-75
2021/08/26 08:59:54;;;;;;;5.53;2.23;;;16.80;76.80;;;;;;4963135;29;20340;-75
2021/08/26 09:02:19;;;;;;;8.87;3.47;;;16.80;77.30;;;;;;4963972;29;20030;-75
2021/08/26 09:04:58;;;;;;;3.50;2.33;;;17.00;80.30;;;;;;4964092;28;20023;-75
2021/08/26 09:07:31;;;;;;;5.43;2.70;;;17.10;75.80;;;;;;4979237;28;20229;-75
2021/08/26 09:09:57;;;;;;;5.32;2.35;;;17.20;76.80;;;;;;4963113;28;20027;-75
2021/08/26 09:12:43;;;;;;;7.57;2.73;;;17.20;73.20;;;;;;4962507;28;20019;-74
2021/08/26 09:15:09;;;;;;;3.63;2.08;;;17.40;73.60;;;;;;4972635;28;20019;-75
2021/08/26 09:17:35;;;;;;;5.53;2.83;;;17.40;70.80;;;;;;4943806;29;20020;-73
2021/08/26 09:20:02;;;;;;;5.43;2.97;;;17.40;71.90;;;;;;4945946;29;20023;-73
2021/08/26 09:22:28;;;;;;;5.28;2.50;;;17.60;73.20;;;;;;4931742;29;20022;-73
2021/08/26 09:24:53;;;;;;;3.37;2.13;;;17.80;70.60;;;;;;4947908;29;20049;-71
2021/08/26 09:27:32;;;;;;;4.40;2.30;;;18.00;72.60;;;;;;4947852;29;20078;-73
2021/08/26 09:29:58;;;;;;;4.60;2.40;;;17.90;66.60;;;;;;4949104;29;20293;-73
2021/08/26 09:32:31;;;;;;;;;;;18.00;71.20;;;;;;4932535;29;20047;-73
2021/08/26 09:35:14;;;;;;;5.50;2.45;;;18.20;70.70;;;;;;4947196;29;20123;-71
2021/08/26 09:38:02;;;;;;;3.53;2.30;;;18.40;73.60;;;;;;4948422;29;20041;-72
2021/08/26 09:40:54;;;;;;;6.07;2.42;;;18.60;72.90;;;;;;4947969;29;20063;-73
2021/08/26 09:43:30;;;;;;;3.45;2.10;;;18.80;72.20;;;;;;4958570;28;20364;-73
2021/08/26 09:45:56;;;;;;;3.22;2.08;;;18.60;67.60;;;;;;4954445;29;20025;-73
2021/08/26 09:48:22;;;;;;;6.00;2.33;;;18.50;65.60;;;;;;4946848;29;20019;-72
2021/08/26 09:50:48;;;;;;;4.33;2.20;;;18.30;61.00;;;;;;4947792;29;20019;-73
2021/08/26 09:53:15;;;;;;;6.03;2.38;;;18.40;67.00;;;;;;4946252;29;20015;-74
2021/08/26 09:55:50;;;;;;;3.70;2.63;;;18.50;66.10;;;;;;4963233;28;20091;-74
2021/08/26 09:58:17;;;;;;;5.20;2.10;;;18.50;64.60;;;;;;4947472;29;20214;-73
2021/08/26 10:00:43;;;;;;;3.33;2.10;;;18.20;61.30;;;;;;4945980;29;20016;-73
2021/08/26 10:03:13;;;;;;;5.83;2.40;;;18.40;64.90;;;;;;4947198;29;20022;-73
2021/08/26 10:05:42;;;;;;;4.38;2.20;;;18.40;64.30;;;;;;4946034;29;20016;-73
2021/08/26 10:08:07;;;;;;;4.38;2.15;;;18.60;66.90;;;;;;4961892;28;20039;-73
2021/08/26 10:10:33;;;;;;;5.97;2.77;;;18.70;65.30;;;;;;4946596;29;20078;-73
2021/08/26 10:13:02;;;;;;;4.70;2.20;;;18.50;64.60;;;;;;4971772;28;20023;-74
2021/08/26 10:15:28;;;;;;;4.40;2.55;;;18.60;61.50;;;;;;4960324;29;20023;-73
2021/08/26 10:17:54;;;;;;;5.85;2.75;;;18.50;61.10;;;;;;4951165;29;20026;-73
2021/08/26 10:20:20;;;;;;;4.13;2.60;;;18.60;62.30;;;;;;4966497;29;20023;-73
2021/08/26 10:22:47;;;;;;;4.30;2.10;;;18.80;63.90;;;;;;4964798;28;20055;-73
2021/08/26 10:25:13;;;;;;;4.97;2.30;;;18.90;63.00;;;;;;4981405;28;20086;-74
2021/08/26 10:27:38;;;;;;;4.27;2.13;;;19.20;63.00;;;;;;4981257;28;20058;-74
2021/08/26 10:30:04;;;;;;;5.80;2.33;;;19.60;64.30;;;;;;4964982;29;20023;-74
2021/08/26 10:32:30;;;;;;;3.95;2.72;;;19.60;60.20;;;;;;4964277;28;20023;-74
2021/08/26 10:35:08;;;;;;;2.27;1.77;;;19.80;58.50;;;;;;4965044;29;20203;-74
2021/08/26 10:37:54;;;;;;;3.08;2.30;;;19.40;54.70;;;;;;4965679;29;20031;-74
2021/08/26 10:40:39;;;;;;;4.10;2.28;;;19.10;57.90;;;;;;4966054;28;20019;-73
2021/08/26 10:43:06;;;;;;;3.45;2.10;;;18.90;56.70;;;;;;4963332;29;20055;-74
2021/08/26 10:45:50;;;;;;;4.30;2.45;;;18.90;58.50;;;;;;4964911;28;20022;-74
2021/08/26 10:48:18;;;;;;;6.03;2.25;;;19.00;60.90;;;;;;4950917;29;20187;-74
2021/08/26 10:50:45;;;;;;;4.68;2.28;;;19.20;60.70;;;;;;4963050;29;20020;-73
2021/08/26 10:53:28;;;;;;;3.40;2.13;;;19.50;56.60;;;;;;4964352;28;20015;-73
2021/08/26 10:55:55;;;;;;;3.20;2.05;;;19.50;57.30;;;;;;4964775;29;20376;-74
2021/08/26 10:58:21;;;;;;;2.80;2.13;;;19.30;53.70;;;;;;4948735;29;20031;-73
2021/08/26 11:00:47;;;;;;;5.90;1.80;;;19.10;55.10;;;;;;4965767;29;20047;-73
2021/08/26 11:03:35;;;;;;;3.13;1.80;;;18.90;54.80;;;;;;4965572;28;20029;-74
2021/08/26 11:06:18;;;;;;;5.20;1.90;;;19.20;57.80;;;;;;4980766;28;20019;-74
2021/08/26 11:09:11;;;;;;;4.97;2.10;;;19.30;55.50;;;;;;4965382;29;20030;-73
2021/08/26 11:11:37;;;;;;;7.97;2.15;;;19.10;55.80;;;;;;4936298;28;20027;-73
2021/08/26 11:14:03;;;;;;;4.88;2.30;;;19.30;58.30;;;;;;4963567;28;20038;-73
2021/08/26 11:16:29;;;;;;;2.60;1.80;;;19.80;53.60;;;;;;4964562;29;20389;-73
2021/08/26 11:18:59;;;;;;;3.93;2.30;;;20.30;51.20;;;;;;4954490;29;20023;-73
2021/08/26 11:21:48;;;;;;;4.47;1.77;;;20.60;47.70;;;;;;4958646;29;20035;-73
2021/08/26 11:24:19;;;;;;;4.10;1.80;;;20.40;50.10;;;;;;4964457;28;20269;-73
2021/08/26 11:26:49;;;;;;;2.72;1.88;;;20.70;52.50;;;;;;4962809;29;20035;-73
2021/08/26 11:29:18;;;;;;;2.75;1.75;;;21.00;48.80;;;;;;4965025;29;20043;-73
2021/08/26 11:31:54;;;;;;;3.33;1.65;;;20.90;48.20;;;;;;4963654;29;20054;-74
2021/08/26 11:34:37;;;;;;;3.53;1.70;;;20.80;50.90;;;;;;4955985;29;20024;-74
2021/08/26 11:37:22;;;;;;;2.17;1.40;;;20.90;47.00;;;;;;4963220;29;20058;-73
2021/08/26 11:39:51;;;;;;;3.30;2.00;;;20.80;45.60;;;;;;4947593;29;20026;-74
2021/08/26 11:42:19;;;;;;;2.55;1.70;;;21.30;50.10;;;;;;4964725;28;20321;-75
2021/08/26 11:45:13;;;;;;;3.95;1.95;;;21.40;45.80;;;;;;4963904;28;20033;-73
2021/08/26 11:47:40;;;;;;;3.05;1.73;;;22.00;50.40;;;;;;4964410;29;20024;-76
2021/08/26 11:50:17;;;;;;;5.18;1.75;;;22.50;49.70;;;;;;4937180;29;20045;-75
2021/08/26 11:52:44;;;;;;;4.23;2.23;;;22.50;48.10;;;;;;4953471;28;20029;-74
2021/08/26 11:55:10;;;;;;;2.85;1.63;;;22.50;46.60;;;;;;4962781;29;20278;-75
2021/08/26 11:57:35;;;;;;;10.03;1.73;;;21.90;45.90;;;;;;4946465;29;20034;-74
2021/08/26 12:00:13;;;;;;;3.95;1.77;;;21.60;46.90;;;;;;4999050;23;20022;-81
2021/08/26 12:02:40;;;;;;;2.97;1.55;;;21.20;46.00;;;;;;4966583;28;20022;-78
2021/08/26 12:05:11;;;;;;;3.05;1.40;;;21.10;47.10;;;;;;4984363;28;20042;-80
2021/08/26 12:07:39;;;;;;;3.55;1.48;;;21.00;46.50;;;;;;4970780;28;20022;-80
2021/08/26 12:10:29;;;;;;;4.85;2.50;;;21.10;48.40;;;;;;4983645;28;20094;-79
2021/08/26 12:12:54;;;;;;;8.20;5.72;;;21.10;48.40;;;;;;4985248;28;20026;-80
2021/08/26 12:15:29;;;;;;;4.93;2.20;;;21.00;48.00;;;;;;4984748;28;20034;-80
2021/08/26 12:18:03;;;;;;;3.92;1.40;;;21.00;47.50;;;;;;4984128;28;20018;-78
2021/08/26 12:20:30;;;;;;;3.95;2.08;;;20.90;49.30;;;;;;4983159;28;20393;-79
2021/08/26 12:22:56;;;;;;;4.78;1.85;;;20.90;49.10;;;;;;4984866;28;20279;-79
2021/08/26 12:25:33;;;;;;;2.85;1.70;;;21.70;49.80;;;;;;4983600;28;20027;-79
2021/08/26 12:28:01;;;;;;;3.40;1.33;;;22.80;41.90;;;;;;4984052;28;20018;-79
2021/08/26 12:30:35;;;;;;;2.95;1.55;;;24.30;37.90;;;;;;4979293;28;20023;-79
2021/08/26 12:33:17;;;;;;;3.50;1.60;;;26.20;39.40;;;;;;4963270;29;20033;-77
2021/08/26 12:35:44;;;;;;;3.25;1.63;;;27.30;36.70;;;;;;4948714;29;20019;-79
2021/08/26 12:38:11;;;;;;;3.00;1.55;;;27.30;33.80;;;;;;4963088;29;20086;-77
2021/08/26 12:41:13;;;;;;;2.60;1.70;;;27.00;34.40;;;;;;4953056;28;20014;-80
2021/08/26 12:43:46;;;;;;;2.85;1.50;;;27.70;33.50;;;;;;4975661;28;20037;-79
2021/08/26 12:46:18;;;;;;;4.40;1.63;;;26.80;35.10;;;;;;4982281;28;20229;-78
2021/08/26 12:48:44;;;;;;;2.15;1.63;;;26.80;33.10;;;;;;4982627;28;20030;-77